sensor_id;sensor_type;location;lat;lon;timestamp;P1;durP1;ratioP1;P2;durP2;ratioP2
43813;SDS011;29669;55.706;37.656;2023-07-02T00:01:39;8.60;;;6.50;;
43813;SDS011;29669;55.706;37.656;2023-07-02T00:04:17;7.18;;;6.47;;
43813;SDS011;29669;55.706;37.656;2023-07-02T00:06:48;7.93;;;6.40;;
43813;SDS011;29669;55.706;37.656;2023-07-02T00:09:18;9.93;;;6.00;;
43813;SDS011;29669;55.706;37.656;2023-07-02T00:11:51;8.77;;;6.05;;
43813;SDS011;29669;55.706;37.656;2023-07-02T00:14:30;7.47;;;6.20;;
43813;SDS011;29669;55.706;37.656;2023-07-02T00:16:58;9.73;;;6.05;;
43813;SDS011;29669;55.706;37.656;2023-07-02T00:20:41;8.80;;;6.93;;
43813;SDS011;29669;55.706;37.656;2023-07-02T00:23:12;11.68;;;6.47;;
43813;SDS011;29669;55.706;37.656;2023-07-02T00:26:05;6.60;;;5.93;;
43813;SDS011;29669;55.706;37.656;2023-07-02T00:30:03;10.23;;;6.18;;
43813;SDS011;29669;55.706;37.656;2023-07-02T00:32:37;13.93;;;6.40;;
43813;SDS011;29669;55.706;37.656;2023-07-02T00:35:07;8.57;;;6.18;;
43813;SDS011;29669;55.706;37.656;2023-07-02T00:37:35;7.68;;;6.82;;
43813;SDS011;29669;55.706;37.656;2023-07-02T00:40:07;6.90;;;6.15;;
43813;SDS011;29669;55.706;37.656;2023-07-02T00:42:36;9.80;;;7.20;;
43813;SDS011;29669;55.706;37.656;2023-07-02T00:45:04;7.18;;;6.18;;
43813;SDS011;29669;55.706;37.656;2023-07-02T00:47:34;8.68;;;6.72;;
43813;SDS011;29669;55.706;37.656;2023-07-02T00:50:03;9.70;;;6.07;;
43813;SDS011;29669;55.706;37.656;2023-07-02T00:52:34;8.80;;;6.85;;
43813;SDS011;29669;55.706;37.656;2023-07-02T00:55:02;8.48;;;6.78;;
43813;SDS011;29669;55.706;37.656;2023-07-02T00:57:32;8.27;;;6.50;;
43813;SDS011;29669;55.706;37.656;2023-07-02T01:00:01;8.80;;;6.28;;
43813;SDS011;29669;55.706;37.656;2023-07-02T01:02:36;7.20;;;6.50;;
43813;SDS011;29669;55.706;37.656;2023-07-02T01:05:16;10.18;;;6.97;;
43813;SDS011;29669;55.706;37.656;2023-07-02T01:07:44;7.20;;;6.50;;
43813;SDS011;29669;55.706;37.656;2023-07-02T01:10:31;10.73;;;8.35;;
43813;SDS011;29669;55.706;37.656;2023-07-02T01:13:12;14.30;;;6.95;;
43813;SDS011;29669;55.706;37.656;2023-07-02T01:15:44;6.97;;;6.28;;
43813;SDS011;29669;55.706;37.656;2023-07-02T01:18:14;9.40;;;6.35;;
43813;SDS011;29669;55.706;37.656;2023-07-02T01:20:43;10.57;;;6.38;;
43813;SDS011;29669;55.706;37.656;2023-07-02T01:23:12;9.32;;;6.40;;
43813;SDS011;29669;55.706;37.656;2023-07-02T01:26:22;9.55;;;6.55;;
43813;SDS011;29669;55.706;37.656;2023-07-02T01:29:13;9.07;;;6.97;;
43813;SDS011;29669;55.706;37.656;2023-07-02T01:32:04;8.88;;;6.30;;
43813;SDS011;29669;55.706;37.656;2023-07-02T01:34:33;8.43;;;6.18;;
43813;SDS011;29669;55.706;37.656;2023-07-02T01:37:11;6.78;;;6.13;;
43813;SDS011;29669;55.706;37.656;2023-07-02T01:39:42;9.20;;;6.50;;
43813;SDS011;29669;55.706;37.656;2023-07-02T01:42:13;9.63;;;6.88;;
43813;SDS011;29669;55.706;37.656;2023-07-02T01:44:47;10.18;;;6.70;;
43813;SDS011;29669;55.706;37.656;2023-07-02T01:47:18;6.82;;;6.22;;
43813;SDS011;29669;55.706;37.656;2023-07-02T01:49:50;8.32;;;6.47;;
43813;SDS011;29669;55.706;37.656;2023-07-02T01:52:20;8.85;;;6.28;;
43813;SDS011;29669;55.706;37.656;2023-07-02T01:54:48;11.73;;;6.55;;
43813;SDS011;29669;55.706;37.656;2023-07-02T01:57:16;7.75;;;6.28;;
43813;SDS011;29669;55.706;37.656;2023-07-02T01:59:45;7.57;;;6.32;;
43813;SDS011;29669;55.706;37.656;2023-07-02T02:05:55;7.68;;;6.30;;
43813;SDS011;29669;55.706;37.656;2023-07-02T02:09:39;9.27;;;5.07;;
43813;SDS011;29669;55.706;37.656;2023-07-02T02:13:29;8.90;;;5.63;;
43813;SDS011;29669;55.706;37.656;2023-07-02T02:21:08;9.93;;;6.40;;
43813;SDS011;29669;55.706;37.656;2023-07-02T02:24:48;6.85;;;5.82;;
43813;SDS011;29669;55.706;37.656;2023-07-02T02:27:54;8.35;;;5.82;;
43813;SDS011;29669;55.706;37.656;2023-07-02T02:31:12;6.68;;;5.28;;
43813;SDS011;29669;55.706;37.656;2023-07-02T02:34:09;6.47;;;5.72;;
43813;SDS011;29669;55.706;37.656;2023-07-02T02:36:45;6.53;;;5.90;;
43813;SDS011;29669;55.706;37.656;2023-07-02T02:39:17;7.88;;;5.95;;
43813;SDS011;29669;55.706;37.656;2023-07-02T02:42:06;6.97;;;5.40;;
43813;SDS011;29669;55.706;37.656;2023-07-02T02:44:36;7.50;;;5.68;;
43813;SDS011;29669;55.706;37.656;2023-07-02T02:47:09;7.18;;;5.80;;
43813;SDS011;29669;55.706;37.656;2023-07-02T02:49:45;6.53;;;5.88;;
43813;SDS011;29669;55.706;37.656;2023-07-02T02:52:16;7.35;;;5.13;;
43813;SDS011;29669;55.706;37.656;2023-07-02T02:54:45;5.45;;;4.90;;
43813;SDS011;29669;55.706;37.656;2023-07-02T02:57:15;8.88;;;5.05;;
43813;SDS011;29669;55.706;37.656;2023-07-02T02:59:46;10.98;;;5.30;;
43813;SDS011;29669;55.706;37.656;2023-07-02T03:02:14;5.85;;;5.25;;
43813;SDS011;29669;55.706;37.656;2023-07-02T03:04:54;6.03;;;4.93;;
43813;SDS011;29669;55.706;37.656;2023-07-02T03:07:32;5.32;;;4.82;;
43813;SDS011;29669;55.706;37.656;2023-07-02T03:10:06;6.38;;;4.82;;
43813;SDS011;29669;55.706;37.656;2023-07-02T03:12:35;5.72;;;4.88;;
43813;SDS011;29669;55.706;37.656;2023-07-02T03:15:03;7.55;;;5.53;;
43813;SDS011;29669;55.706;37.656;2023-07-02T03:17:33;6.85;;;4.97;;
43813;SDS011;29669;55.706;37.656;2023-07-02T03:20:01;5.95;;;4.72;;
43813;SDS011;29669;55.706;37.656;2023-07-02T03:22:32;6.32;;;4.90;;
43813;SDS011;29669;55.706;37.656;2023-07-02T03:25:00;5.80;;;4.90;;
43813;SDS011;29669;55.706;37.656;2023-07-02T03:27:35;5.03;;;4.50;;
43813;SDS011;29669;55.706;37.656;2023-07-02T03:30:21;5.60;;;4.90;;
43813;SDS011;29669;55.706;37.656;2023-07-02T03:33:08;7.40;;;4.80;;
43813;SDS011;29669;55.706;37.656;2023-07-02T03:36:13;6.22;;;5.18;;
43813;SDS011;29669;55.706;37.656;2023-07-02T03:38:43;7.05;;;5.43;;
43813;SDS011;29669;55.706;37.656;2023-07-02T03:41:14;5.88;;;3.92;;
43813;SDS011;29669;55.706;37.656;2023-07-02T03:43:42;4.80;;;4.38;;
43813;SDS011;29669;55.706;37.656;2023-07-02T03:46:10;5.63;;;5.07;;
43813;SDS011;29669;55.706;37.656;2023-07-02T03:48:38;5.45;;;4.95;;
43813;SDS011;29669;55.706;37.656;2023-07-02T03:51:06;7.93;;;5.93;;
43813;SDS011;29669;55.706;37.656;2023-07-02T03:53:34;6.45;;;5.40;;
43813;SDS011;29669;55.706;37.656;2023-07-02T03:56:05;6.45;;;5.10;;
43813;SDS011;29669;55.706;37.656;2023-07-02T04:04:54;7.15;;;5.70;;
43813;SDS011;29669;55.706;37.656;2023-07-02T04:13:53;8.73;;;5.60;;
43813;SDS011;29669;55.706;37.656;2023-07-02T04:27:23;5.68;;;4.90;;
43813;SDS011;29669;55.706;37.656;2023-07-02T04:30:11;5.95;;;5.32;;
43813;SDS011;29669;55.706;37.656;2023-07-02T04:32:40;8.70;;;5.43;;
43813;SDS011;29669;55.706;37.656;2023-07-02T04:35:08;7.35;;;5.03;;
43813;SDS011;29669;55.706;37.656;2023-07-02T04:37:36;6.30;;;4.90;;
43813;SDS011;29669;55.706;37.656;2023-07-02T04:40:06;5.40;;;4.85;;
43813;SDS011;29669;55.706;37.656;2023-07-02T04:42:39;6.30;;;5.30;;
43813;SDS011;29669;55.706;37.656;2023-07-02T04:45:08;8.10;;;5.22;;
43813;SDS011;29669;55.706;37.656;2023-07-02T04:47:36;6.28;;;4.78;;
43813;SDS011;29669;55.706;37.656;2023-07-02T05:19:34;6.28;;;4.55;;
43813;SDS011;29669;55.706;37.656;2023-07-02T05:36:07;6.68;;;5.18;;
43813;SDS011;29669;55.706;37.656;2023-07-02T05:38:35;7.20;;;4.88;;
43813;SDS011;29669;55.706;37.656;2023-07-02T05:41:03;6.93;;;5.28;;
43813;SDS011;29669;55.706;37.656;2023-07-02T05:43:38;6.15;;;5.18;;
43813;SDS011;29669;55.706;37.656;2023-07-02T05:46:08;7.00;;;5.20;;
43813;SDS011;29669;55.706;37.656;2023-07-02T05:48:41;5.78;;;4.80;;
43813;SDS011;29669;55.706;37.656;2023-07-02T05:51:19;8.25;;;4.90;;
43813;SDS011;29669;55.706;37.656;2023-07-02T05:53:51;8.43;;;4.63;;
43813;SDS011;29669;55.706;37.656;2023-07-02T05:56:19;6.10;;;4.60;;
43813;SDS011;29669;55.706;37.656;2023-07-02T05:58:48;8.75;;;5.43;;
43813;SDS011;29669;55.706;37.656;2023-07-02T06:01:16;7.80;;;4.85;;
43813;SDS011;29669;55.706;37.656;2023-07-02T06:03:48;6.00;;;4.57;;
43813;SDS011;29669;55.706;37.656;2023-07-02T06:06:18;5.68;;;4.35;;
43813;SDS011;29669;55.706;37.656;2023-07-02T06:08:53;6.38;;;5.03;;
43813;SDS011;29669;55.706;37.656;2023-07-02T06:11:44;5.75;;;4.70;;
43813;SDS011;29669;55.706;37.656;2023-07-02T06:14:12;8.45;;;5.05;;
43813;SDS011;29669;55.706;37.656;2023-07-02T06:16:42;11.10;;;5.07;;
43813;SDS011;29669;55.706;37.656;2023-07-02T06:19:13;8.82;;;5.03;;
43813;SDS011;29669;55.706;37.656;2023-07-02T06:25:00;11.05;;;4.75;;
43813;SDS011;29669;55.706;37.656;2023-07-02T06:28:01;5.88;;;4.55;;
43813;SDS011;29669;55.706;37.656;2023-07-02T06:30:28;6.53;;;4.60;;
43813;SDS011;29669;55.706;37.656;2023-07-02T06:32:56;11.27;;;4.80;;
43813;SDS011;29669;55.706;37.656;2023-07-02T06:35:24;10.88;;;4.60;;
43813;SDS011;29669;55.706;37.656;2023-07-02T06:37:52;8.38;;;4.45;;
43813;SDS011;29669;55.706;37.656;2023-07-02T06:40:20;5.57;;;4.55;;
43813;SDS011;29669;55.706;37.656;2023-07-02T06:52:40;7.00;;;4.70;;
43813;SDS011;29669;55.706;37.656;2023-07-02T06:55:19;6.07;;;4.22;;
43813;SDS011;29669;55.706;37.656;2023-07-02T06:58:17;5.65;;;4.10;;
43813;SDS011;29669;55.706;37.656;2023-07-02T07:00:45;6.90;;;3.97;;
43813;SDS011;29669;55.706;37.656;2023-07-02T07:03:13;5.88;;;4.40;;
43813;SDS011;29669;55.706;37.656;2023-07-02T07:05:45;4.75;;;3.88;;
43813;SDS011;29669;55.706;37.656;2023-07-02T07:08:16;8.32;;;4.22;;
43813;SDS011;29669;55.706;37.656;2023-07-02T07:10:44;7.63;;;3.88;;
43813;SDS011;29669;55.706;37.656;2023-07-02T07:13:15;4.57;;;3.67;;
43813;SDS011;29669;55.706;37.656;2023-07-02T07:15:43;6.65;;;3.80;;
43813;SDS011;29669;55.706;37.656;2023-07-02T07:18:11;6.13;;;3.95;;
43813;SDS011;29669;55.706;37.656;2023-07-02T07:20:39;4.43;;;3.88;;
43813;SDS011;29669;55.706;37.656;2023-07-02T07:23:09;5.03;;;4.47;;
43813;SDS011;29669;55.706;37.656;2023-07-02T07:44:15;4.68;;;3.65;;
43813;SDS011;29669;55.706;37.656;2023-07-02T08:00:56;6.00;;;3.70;;
43813;SDS011;29669;55.706;37.656;2023-07-02T08:03:37;9.55;;;4.40;;
43813;SDS011;29669;55.706;37.656;2023-07-02T08:06:10;4.70;;;3.78;;
43813;SDS011;29669;55.706;37.656;2023-07-02T08:08:52;4.20;;;3.80;;
43813;SDS011;29669;55.706;37.656;2023-07-02T08:11:23;6.32;;;3.72;;
43813;SDS011;29669;55.706;37.656;2023-07-02T08:13:55;5.43;;;3.80;;
43813;SDS011;29669;55.706;37.656;2023-07-02T08:34:16;8.68;;;4.25;;
43813;SDS011;29669;55.706;37.656;2023-07-02T08:36:53;6.07;;;3.83;;
43813;SDS011;29669;55.706;37.656;2023-07-02T08:39:21;6.85;;;4.07;;
43813;SDS011;29669;55.706;37.656;2023-07-02T08:41:49;9.52;;;4.03;;
43813;SDS011;29669;55.706;37.656;2023-07-02T08:44:22;6.30;;;4.20;;
43813;SDS011;29669;55.706;37.656;2023-07-02T08:46:53;4.60;;;4.00;;
43813;SDS011;29669;55.706;37.656;2023-07-02T08:49:24;4.18;;;3.60;;
43813;SDS011;29669;55.706;37.656;2023-07-02T08:51:52;6.95;;;3.85;;
43813;SDS011;29669;55.706;37.656;2023-07-02T08:54:19;7.70;;;3.92;;
43813;SDS011;29669;55.706;37.656;2023-07-02T08:56:47;6.07;;;4.00;;
43813;SDS011;29669;55.706;37.656;2023-07-02T08:59:15;6.40;;;3.63;;
43813;SDS011;29669;55.706;37.656;2023-07-02T09:01:47;6.55;;;3.95;;
43813;SDS011;29669;55.706;37.656;2023-07-02T09:04:22;5.82;;;4.35;;
43813;SDS011;29669;55.706;37.656;2023-07-02T09:07:04;6.78;;;4.32;;
43813;SDS011;29669;55.706;37.656;2023-07-02T09:09:33;8.13;;;4.50;;
43813;SDS011;29669;55.706;37.656;2023-07-02T09:12:23;5.40;;;3.47;;
43813;SDS011;29669;55.706;37.656;2023-07-02T09:14:56;5.65;;;3.95;;
43813;SDS011;29669;55.706;37.656;2023-07-02T09:17:36;4.80;;;3.80;;
43813;SDS011;29669;55.706;37.656;2023-07-02T09:20:05;5.35;;;3.95;;
43813;SDS011;29669;55.706;37.656;2023-07-02T09:22:35;7.70;;;4.32;;
43813;SDS011;29669;55.706;37.656;2023-07-02T09:25:04;7.57;;;4.50;;
43813;SDS011;29669;55.706;37.656;2023-07-02T09:27:39;5.72;;;3.80;;
43813;SDS011;29669;55.706;37.656;2023-07-02T09:30:09;8.05;;;4.55;;
43813;SDS011;29669;55.706;37.656;2023-07-02T09:32:43;6.68;;;3.80;;
43813;SDS011;29669;55.706;37.656;2023-07-02T09:35:12;7.43;;;3.40;;
43813;SDS011;29669;55.706;37.656;2023-07-02T09:37:42;8.68;;;4.18;;
43813;SDS011;29669;55.706;37.656;2023-07-02T09:40:11;6.32;;;4.57;;
43813;SDS011;29669;55.706;37.656;2023-07-02T09:42:39;6.72;;;4.22;;
43813;SDS011;29669;55.706;37.656;2023-07-02T09:45:09;5.80;;;4.20;;
43813;SDS011;29669;55.706;37.656;2023-07-02T09:47:40;8.20;;;4.18;;
43813;SDS011;29669;55.706;37.656;2023-07-02T09:50:14;9.05;;;3.95;;
43813;SDS011;29669;55.706;37.656;2023-07-02T09:52:45;5.93;;;4.07;;
43813;SDS011;29669;55.706;37.656;2023-07-02T09:55:14;8.38;;;4.07;;
43813;SDS011;29669;55.706;37.656;2023-07-02T09:57:45;7.97;;;4.38;;
43813;SDS011;29669;55.706;37.656;2023-07-02T10:00:14;6.93;;;3.92;;
43813;SDS011;29669;55.706;37.656;2023-07-02T10:02:46;8.15;;;4.18;;
43813;SDS011;29669;55.706;37.656;2023-07-02T10:05:31;4.57;;;3.90;;
43813;SDS011;29669;55.706;37.656;2023-07-02T10:08:13;5.03;;;3.90;;
43813;SDS011;29669;55.706;37.656;2023-07-02T10:10:45;6.65;;;3.78;;
43813;SDS011;29669;55.706;37.656;2023-07-02T10:13:13;5.28;;;4.00;;
43813;SDS011;29669;55.706;37.656;2023-07-02T10:15:40;9.07;;;4.38;;
43813;SDS011;29669;55.706;37.656;2023-07-02T10:18:09;4.63;;;4.15;;
43813;SDS011;29669;55.706;37.656;2023-07-02T10:20:40;4.80;;;4.20;;
43813;SDS011;29669;55.706;37.656;2023-07-02T10:23:09;7.30;;;3.90;;
43813;SDS011;29669;55.706;37.656;2023-07-02T10:25:37;8.77;;;4.00;;
43813;SDS011;29669;55.706;37.656;2023-07-02T10:28:18;8.15;;;4.70;;
43813;SDS011;29669;55.706;37.656;2023-07-02T10:30:49;6.20;;;4.03;;
43813;SDS011;29669;55.706;37.656;2023-07-02T10:33:20;7.97;;;4.13;;
43813;SDS011;29669;55.706;37.656;2023-07-02T10:35:48;7.47;;;4.43;;
43813;SDS011;29669;55.706;37.656;2023-07-02T10:38:20;4.97;;;3.60;;
43813;SDS011;29669;55.706;37.656;2023-07-02T10:40:56;6.70;;;4.18;;
43813;SDS011;29669;55.706;37.656;2023-07-02T10:43:26;5.72;;;3.85;;
43813;SDS011;29669;55.706;37.656;2023-07-02T10:45:59;8.05;;;4.30;;
43813;SDS011;29669;55.706;37.656;2023-07-02T10:48:50;8.27;;;3.80;;
43813;SDS011;29669;55.706;37.656;2023-07-02T10:51:18;7.93;;;4.72;;
43813;SDS011;29669;55.706;37.656;2023-07-02T10:53:56;5.80;;;4.15;;
43813;SDS011;29669;55.706;37.656;2023-07-02T10:56:27;6.25;;;3.50;;
43813;SDS011;29669;55.706;37.656;2023-07-02T10:58:55;6.57;;;3.70;;
43813;SDS011;29669;55.706;37.656;2023-07-02T11:04:03;8.52;;;3.85;;
43813;SDS011;29669;55.706;37.656;2023-07-02T11:06:32;5.25;;;3.42;;
43813;SDS011;29669;55.706;37.656;2023-07-02T11:09:00;6.85;;;4.00;;
43813;SDS011;29669;55.706;37.656;2023-07-02T11:11:28;6.60;;;3.75;;
43813;SDS011;29669;55.706;37.656;2023-07-02T11:13:56;6.30;;;4.07;;
43813;SDS011;29669;55.706;37.656;2023-07-02T11:16:27;5.38;;;3.63;;
43813;SDS011;29669;55.706;37.656;2023-07-02T11:19:06;5.53;;;3.53;;
43813;SDS011;29669;55.706;37.656;2023-07-02T11:21:36;6.78;;;3.63;;
43813;SDS011;29669;55.706;37.656;2023-07-02T11:24:07;6.65;;;3.97;;
43813;SDS011;29669;55.706;37.656;2023-07-02T11:26:38;3.85;;;3.38;;
43813;SDS011;29669;55.706;37.656;2023-07-02T11:29:07;6.53;;;3.60;;
43813;SDS011;29669;55.706;37.656;2023-07-02T11:31:38;4.80;;;3.28;;
43813;SDS011;29669;55.706;37.656;2023-07-02T11:34:13;7.78;;;4.07;;
43813;SDS011;29669;55.706;37.656;2023-07-02T11:36:45;8.70;;;4.00;;
43813;SDS011;29669;55.706;37.656;2023-07-02T11:39:13;6.18;;;3.75;;
43813;SDS011;29669;55.706;37.656;2023-07-02T11:41:43;3.88;;;3.25;;
43813;SDS011;29669;55.706;37.656;2023-07-02T11:44:12;4.03;;;3.30;;
43813;SDS011;29669;55.706;37.656;2023-07-02T11:46:40;4.25;;;3.42;;
43813;SDS011;29669;55.706;37.656;2023-07-02T11:49:07;5.65;;;3.38;;
43813;SDS011;29669;55.706;37.656;2023-07-02T11:51:36;4.82;;;3.20;;
43813;SDS011;29669;55.706;37.656;2023-07-02T11:54:12;4.50;;;3.30;;
43813;SDS011;29669;55.706;37.656;2023-07-02T11:56:52;6.10;;;3.22;;
43813;SDS011;29669;55.706;37.656;2023-07-02T11:59:41;7.47;;;3.45;;
43813;SDS011;29669;55.706;37.656;2023-07-02T12:02:48;5.30;;;3.45;;
43813;SDS011;29669;55.706;37.656;2023-07-02T12:05:18;4.43;;;3.47;;
43813;SDS011;29669;55.706;37.656;2023-07-02T12:12:08;5.38;;;3.10;;
43813;SDS011;29669;55.706;37.656;2023-07-02T12:16:32;7.40;;;3.92;;
43813;SDS011;29669;55.706;37.656;2023-07-02T12:52:53;5.57;;;3.83;;
43813;SDS011;29669;55.706;37.656;2023-07-02T12:55:24;5.05;;;3.80;;
43813;SDS011;29669;55.706;37.656;2023-07-02T12:57:52;5.60;;;3.92;;
43813;SDS011;29669;55.706;37.656;2023-07-02T13:00:23;7.30;;;3.88;;
43813;SDS011;29669;55.706;37.656;2023-07-02T13:02:54;5.20;;;3.78;;
43813;SDS011;29669;55.706;37.656;2023-07-02T13:05:31;6.15;;;3.85;;
43813;SDS011;29669;55.706;37.656;2023-07-02T13:07:59;7.45;;;3.80;;
43813;SDS011;29669;55.706;37.656;2023-07-02T13:10:28;7.18;;;4.00;;
43813;SDS011;29669;55.706;37.656;2023-07-02T13:13:00;4.82;;;3.88;;
43813;SDS011;29669;55.706;37.656;2023-07-02T13:15:44;6.78;;;4.20;;
43813;SDS011;29669;55.706;37.656;2023-07-02T13:18:12;4.95;;;3.67;;
43813;SDS011;29669;55.706;37.656;2023-07-02T13:20:40;5.50;;;3.92;;
43813;SDS011;29669;55.706;37.656;2023-07-02T13:23:08;4.80;;;4.03;;
43813;SDS011;29669;55.706;37.656;2023-07-02T13:25:36;6.45;;;3.88;;
43813;SDS011;29669;55.706;37.656;2023-07-02T13:28:04;6.63;;;4.60;;
43813;SDS011;29669;55.706;37.656;2023-07-02T13:30:35;5.20;;;4.10;;
43813;SDS011;29669;55.706;37.656;2023-07-02T13:33:03;4.97;;;3.92;;
43813;SDS011;29669;55.706;37.656;2023-07-02T13:35:31;5.05;;;4.45;;
43813;SDS011;29669;55.706;37.656;2023-07-02T13:38:00;6.22;;;4.32;;
43813;SDS011;29669;55.706;37.656;2023-07-02T13:40:28;8.90;;;4.63;;
43813;SDS011;29669;55.706;37.656;2023-07-02T13:42:56;6.40;;;4.00;;
43813;SDS011;29669;55.706;37.656;2023-07-02T13:45:24;6.20;;;4.43;;
43813;SDS011;29669;55.706;37.656;2023-07-02T13:47:52;8.27;;;3.95;;
43813;SDS011;29669;55.706;37.656;2023-07-02T13:50:22;6.13;;;4.13;;
43813;SDS011;29669;55.706;37.656;2023-07-02T13:52:50;5.88;;;4.07;;
43813;SDS011;29669;55.706;37.656;2023-07-02T13:55:19;7.85;;;4.50;;
43813;SDS011;29669;55.706;37.656;2023-07-02T13:57:48;8.30;;;4.82;;
43813;SDS011;29669;55.706;37.656;2023-07-02T14:00:17;5.82;;;4.18;;
43813;SDS011;29669;55.706;37.656;2023-07-02T14:02:47;6.55;;;4.22;;
43813;SDS011;29669;55.706;37.656;2023-07-02T14:05:20;6.78;;;4.75;;
43813;SDS011;29669;55.706;37.656;2023-07-02T14:07:49;6.60;;;4.28;;
43813;SDS011;29669;55.706;37.656;2023-07-02T14:10:20;5.13;;;4.07;;
43813;SDS011;29669;55.706;37.656;2023-07-02T14:12:48;7.13;;;4.55;;
43813;SDS011;29669;55.706;37.656;2023-07-02T14:15:17;8.05;;;4.35;;
43813;SDS011;29669;55.706;37.656;2023-07-02T14:17:45;5.60;;;4.20;;
43813;SDS011;29669;55.706;37.656;2023-07-02T14:20:16;9.52;;;4.43;;
43813;SDS011;29669;55.706;37.656;2023-07-02T14:22:45;5.10;;;4.28;;
43813;SDS011;29669;55.706;37.656;2023-07-02T14:25:15;13.93;;;5.07;;
43813;SDS011;29669;55.706;37.656;2023-07-02T14:27:58;5.03;;;4.47;;
43813;SDS011;29669;55.706;37.656;2023-07-02T14:30:26;5.75;;;4.03;;
43813;SDS011;29669;55.706;37.656;2023-07-02T14:32:55;4.93;;;3.80;;
43813;SDS011;29669;55.706;37.656;2023-07-02T14:35:23;5.97;;;3.90;;
43813;SDS011;29669;55.706;37.656;2023-07-02T14:37:54;4.95;;;4.40;;
43813;SDS011;29669;55.706;37.656;2023-07-02T14:40:39;8.60;;;4.80;;
43813;SDS011;29669;55.706;37.656;2023-07-02T14:43:09;6.97;;;4.30;;
43813;SDS011;29669;55.706;37.656;2023-07-02T14:48:38;7.63;;;4.03;;
43813;SDS011;29669;55.706;37.656;2023-07-02T14:51:11;5.85;;;4.68;;
43813;SDS011;29669;55.706;37.656;2023-07-02T14:53:39;4.90;;;4.05;;
43813;SDS011;29669;55.706;37.656;2023-07-02T14:56:13;5.85;;;4.25;;
43813;SDS011;29669;55.706;37.656;2023-07-02T14:58:42;7.03;;;4.03;;
43813;SDS011;29669;55.706;37.656;2023-07-02T15:01:10;5.45;;;4.25;;
43813;SDS011;29669;55.706;37.656;2023-07-02T15:03:41;6.47;;;4.20;;
43813;SDS011;29669;55.706;37.656;2023-07-02T15:06:12;5.28;;;4.00;;
43813;SDS011;29669;55.706;37.656;2023-07-02T15:08:44;9.30;;;4.72;;
43813;SDS011;29669;55.706;37.656;2023-07-02T15:11:13;4.40;;;4.00;;
43813;SDS011;29669;55.706;37.656;2023-07-02T15:13:42;8.50;;;4.72;;
43813;SDS011;29669;55.706;37.656;2023-07-02T15:16:11;7.50;;;4.05;;
43813;SDS011;29669;55.706;37.656;2023-07-02T15:18:39;7.78;;;4.82;;
43813;SDS011;29669;55.706;37.656;2023-07-02T15:21:21;5.68;;;4.40;;
43813;SDS011;29669;55.706;37.656;2023-07-02T15:25:09;7.50;;;5.03;;
43813;SDS011;29669;55.706;37.656;2023-07-02T15:28:12;6.80;;;4.85;;
43813;SDS011;29669;55.706;37.656;2023-07-02T15:30:57;7.13;;;4.88;;
43813;SDS011;29669;55.706;37.656;2023-07-02T15:33:49;7.43;;;4.43;;
43813;SDS011;29669;55.706;37.656;2023-07-02T15:36:18;7.45;;;4.75;;
43813;SDS011;29669;55.706;37.656;2023-07-02T15:38:53;6.38;;;4.57;;
43813;SDS011;29669;55.706;37.656;2023-07-02T15:41:40;8.18;;;4.90;;
43813;SDS011;29669;55.706;37.656;2023-07-02T15:45:04;9.70;;;4.82;;
43813;SDS011;29669;55.706;37.656;2023-07-02T15:48:31;5.57;;;4.88;;
43813;SDS011;29669;55.706;37.656;2023-07-02T15:51:19;8.32;;;4.63;;
43813;SDS011;29669;55.706;37.656;2023-07-02T15:54:22;7.78;;;5.32;;
43813;SDS011;29669;55.706;37.656;2023-07-02T15:57:06;9.30;;;4.90;;
43813;SDS011;29669;55.706;37.656;2023-07-02T15:59:55;8.65;;;5.10;;
43813;SDS011;29669;55.706;37.656;2023-07-02T16:03:21;6.80;;;4.72;;
43813;SDS011;29669;55.706;37.656;2023-07-02T16:06:21;5.95;;;4.82;;
43813;SDS011;29669;55.706;37.656;2023-07-02T16:08:52;7.35;;;5.30;;
43813;SDS011;29669;55.706;37.656;2023-07-02T16:11:27;6.65;;;4.97;;
43813;SDS011;29669;55.706;37.656;2023-07-02T16:13:59;5.50;;;4.57;;
43813;SDS011;29669;55.706;37.656;2023-07-02T16:16:45;5.72;;;4.85;;
43813;SDS011;29669;55.706;37.656;2023-07-02T16:20:10;9.65;;;5.28;;
43813;SDS011;29669;55.706;37.656;2023-07-02T16:22:48;6.13;;;5.05;;
43813;SDS011;29669;55.706;37.656;2023-07-02T16:25:35;7.57;;;4.85;;
43813;SDS011;29669;55.706;37.656;2023-07-02T16:43:55;6.20;;;4.80;;
43813;SDS011;29669;55.706;37.656;2023-07-02T16:47:38;7.47;;;5.15;;
43813;SDS011;29669;55.706;37.656;2023-07-02T16:51:12;11.20;;;5.40;;
43813;SDS011;29669;55.706;37.656;2023-07-02T16:58:03;9.63;;;5.07;;
43813;SDS011;29669;55.706;37.656;2023-07-02T17:01:09;11.77;;;4.70;;
43813;SDS011;29669;55.706;37.656;2023-07-02T17:04:12;11.02;;;4.88;;
43813;SDS011;29669;55.706;37.656;2023-07-02T17:06:51;9.25;;;5.60;;
43813;SDS011;29669;55.706;37.656;2023-07-02T17:09:33;7.00;;;5.22;;
43813;SDS011;29669;55.706;37.656;2023-07-02T17:12:13;8.27;;;5.53;;
43813;SDS011;29669;55.706;37.656;2023-07-02T17:14:43;8.30;;;5.20;;
43813;SDS011;29669;55.706;37.656;2023-07-02T17:17:26;12.40;;;5.40;;
43813;SDS011;29669;55.706;37.656;2023-07-02T17:19:57;10.52;;;5.47;;
43813;SDS011;29669;55.706;37.656;2023-07-02T17:22:32;9.50;;;5.82;;
43813;SDS011;29669;55.706;37.656;2023-07-02T17:25:00;7.97;;;6.07;;
43813;SDS011;29669;55.706;37.656;2023-07-02T17:27:31;7.15;;;5.70;;
43813;SDS011;29669;55.706;37.656;2023-07-02T17:30:00;7.40;;;5.30;;
43813;SDS011;29669;55.706;37.656;2023-07-02T17:32:34;6.25;;;5.15;;
43813;SDS011;29669;55.706;37.656;2023-07-02T17:35:02;14.10;;;6.78;;
43813;SDS011;29669;55.706;37.656;2023-07-02T17:37:30;7.95;;;6.07;;
43813;SDS011;29669;55.706;37.656;2023-07-02T17:40:01;6.78;;;5.38;;
43813;SDS011;29669;55.706;37.656;2023-07-02T17:42:30;8.10;;;5.85;;
43813;SDS011;29669;55.706;37.656;2023-07-02T17:44:58;10.30;;;5.28;;
43813;SDS011;29669;55.706;37.656;2023-07-02T17:47:31;6.97;;;4.90;;
43813;SDS011;29669;55.706;37.656;2023-07-02T17:49:59;14.82;;;5.85;;
43813;SDS011;29669;55.706;37.656;2023-07-02T17:52:27;7.78;;;5.38;;
43813;SDS011;29669;55.706;37.656;2023-07-02T17:54:55;9.00;;;4.70;;
43813;SDS011;29669;55.706;37.656;2023-07-02T17:57:25;8.43;;;5.28;;
43813;SDS011;29669;55.706;37.656;2023-07-02T17:59:55;8.55;;;6.28;;
43813;SDS011;29669;55.706;37.656;2023-07-02T18:02:23;13.23;;;5.95;;
43813;SDS011;29669;55.706;37.656;2023-07-02T18:04:51;11.48;;;5.78;;
43813;SDS011;29669;55.706;37.656;2023-07-02T18:07:20;12.50;;;6.05;;
43813;SDS011;29669;55.706;37.656;2023-07-02T18:09:49;11.98;;;5.47;;
43813;SDS011;29669;55.706;37.656;2023-07-02T18:12:20;9.60;;;5.43;;
43813;SDS011;29669;55.706;37.656;2023-07-02T18:14:55;9.85;;;5.70;;
43813;SDS011;29669;55.706;37.656;2023-07-02T18:17:23;10.40;;;6.07;;
43813;SDS011;29669;55.706;37.656;2023-07-02T18:19:52;10.20;;;5.93;;
43813;SDS011;29669;55.706;37.656;2023-07-02T18:22:23;8.10;;;5.65;;
43813;SDS011;29669;55.706;37.656;2023-07-02T18:24:51;9.10;;;5.80;;
43813;SDS011;29669;55.706;37.656;2023-07-02T18:27:21;12.13;;;6.57;;
43813;SDS011;29669;55.706;37.656;2023-07-02T18:29:50;14.25;;;6.68;;
43813;SDS011;29669;55.706;37.656;2023-07-02T18:32:22;12.20;;;6.88;;
43813;SDS011;29669;55.706;37.656;2023-07-02T18:34:56;38.08;;;21.17;;
43813;SDS011;29669;55.706;37.656;2023-07-02T18:37:24;16.02;;;9.00;;
43813;SDS011;29669;55.706;37.656;2023-07-02T18:39:53;12.68;;;6.00;;
43813;SDS011;29669;55.706;37.656;2023-07-02T18:42:23;10.05;;;5.93;;
43813;SDS011;29669;55.706;37.656;2023-07-02T18:44:52;11.40;;;6.13;;
43813;SDS011;29669;55.706;37.656;2023-07-02T18:47:20;12.30;;;6.50;;